createdAt,value
2018-12-30T00:00:43.714Z,0
2018-12-30T00:01:45.106Z,0
2018-12-30T00:02:46.465Z,0
2018-12-30T00:03:47.789Z,0
2018-12-30T00:04:49.916Z,0
2018-12-30T00:05:51.246Z,0
2018-12-30T00:06:52.598Z,0
2018-12-30T00:07:54.043Z,0
2018-12-30T00:08:55.477Z,0
2018-12-30T00:09:56.869Z,0
2018-12-30T00:10:58.239Z,0
2018-12-30T00:11:59.637Z,0
2018-12-30T00:13:01.026Z,0
2018-12-30T00:14:02.360Z,0
2018-12-30T00:15:03.772Z,0
2018-12-30T00:16:05.136Z,0
2018-12-30T00:17:06.508Z,0
2018-12-30T00:18:07.866Z,0
2018-12-30T00:19:09.228Z,0
2018-12-30T00:20:10.598Z,0
2018-12-30T00:21:11.971Z,0
2018-12-30T00:22:13.336Z,0
2018-12-30T00:23:14.711Z,0
2018-12-30T00:24:16.079Z,0
2018-12-30T00:25:17.401Z,0
2018-12-30T00:26:18.792Z,0
2018-12-30T00:27:20.163Z,0
2018-12-30T00:28:21.532Z,0
2018-12-30T00:29:23.519Z,0
2018-12-30T00:30:24.890Z,0
2018-12-30T00:31:26.257Z,0
2018-12-30T00:32:27.623Z,0
2018-12-30T00:33:28.995Z,0
2018-12-30T00:34:30.389Z,0
2018-12-30T00:35:31.743Z,0
2018-12-30T00:36:33.194Z,0
2018-12-30T00:37:34.567Z,0
2018-12-30T00:38:35.947Z,0
2018-12-30T00:39:37.307Z,0
2018-12-30T00:40:38.678Z,0
2018-12-30T00:41:40.091Z,0
2018-12-30T00:42:41.449Z,0
2018-12-30T00:43:42.829Z,0
2018-12-30T00:44:44.197Z,0
2018-12-30T00:45:45.544Z,0
2018-12-30T00:46:46.939Z,0
2018-12-30T00:47:48.301Z,0
2018-12-30T00:48:49.667Z,0
2018-12-30T00:49:51.057Z,0
2018-12-30T00:50:52.422Z,0
2018-12-30T00:51:53.807Z,0
2018-12-30T00:52:55.173Z,0
2018-12-30T00:53:56.550Z,0
2018-12-30T00:54:57.937Z,0
2018-12-30T00:55:59.372Z,0
2018-12-30T00:57:00.798Z,0
2018-12-30T00:58:02.171Z,0
2018-12-30T00:59:03.541Z,0
2018-12-30T01:00:04.903Z,0
2018-12-30T01:01:06.346Z,0
2018-12-30T01:02:07.947Z,0
2018-12-30T01:03:09.305Z,0
2018-12-30T01:04:10.672Z,0
2018-12-30T01:05:12.039Z,0
2018-12-30T01:06:13.376Z,0
2018-12-30T01:07:14.736Z,0
2018-12-30T01:08:16.106Z,0
2018-12-30T01:09:17.505Z,0
2018-12-30T01:10:18.842Z,0
2018-12-30T01:11:20.342Z,0
2018-12-30T01:12:21.712Z,0
2018-12-30T01:13:23.078Z,0
2018-12-30T01:14:24.452Z,0
2018-12-30T01:15:25.839Z,0
2018-12-30T01:16:27.195Z,0
2018-12-30T01:17:28.552Z,0
2018-12-30T01:18:29.932Z,0
2018-12-30T01:19:31.356Z,0
2018-12-30T01:20:32.790Z,0
2018-12-30T01:21:34.154Z,0
2018-12-30T01:22:35.596Z,0
2018-12-30T01:23:36.849Z,0
2018-12-30T01:24:38.222Z,0
2018-12-30T01:25:39.602Z,0
2018-12-30T01:26:41.004Z,0
2018-12-30T01:27:42.373Z,0
2018-12-30T01:28:43.760Z,0
2018-12-30T01:29:45.153Z,0
2018-12-30T01:30:46.506Z,0
2018-12-30T01:31:48.056Z,0
2018-12-30T01:32:49.416Z,0
2018-12-30T01:33:50.792Z,0
2018-12-30T01:34:52.235Z,0
2018-12-30T01:35:53.495Z,0
2018-12-30T01:36:54.844Z,0
2018-12-30T01:37:56.208Z,0
2018-12-30T01:38:57.578Z,0
2018-12-30T01:39:58.948Z,0
2018-12-30T01:41:00.317Z,0
2018-12-30T01:42:01.727Z,0
2018-12-30T01:43:03.116Z,0
2018-12-30T01:44:04.488Z,0
2018-12-30T01:45:05.917Z,0
2018-12-30T01:46:07.299Z,0
2018-12-30T01:47:08.636Z,0
2018-12-30T01:48:10.011Z,0
2018-12-30T01:49:11.477Z,0
2018-12-30T01:50:12.715Z,0
2018-12-30T01:51:14.080Z,0
2018-12-30T01:52:15.444Z,0
2018-12-30T01:53:16.811Z,0
2018-12-30T01:54:18.182Z,0
2018-12-30T01:55:20.536Z,0
2018-12-30T01:56:22.103Z,0
2018-12-30T01:57:23.464Z,0
2018-12-30T01:58:24.809Z,0
2018-12-30T01:59:26.177Z,0
2018-12-30T02:00:27.561Z,0
2018-12-30T02:01:28.949Z,0
2018-12-30T02:02:30.323Z,0
2018-12-30T02:03:31.702Z,0
2018-12-30T02:04:33.104Z,0
2018-12-30T02:05:34.488Z,0
2018-12-30T02:06:35.866Z,0
2018-12-30T02:07:37.230Z,0
2018-12-30T02:08:39.272Z,0
2018-12-30T02:09:40.655Z,0
2018-12-30T02:10:42.025Z,0
2018-12-30T02:11:43.387Z,0
2018-12-30T02:12:44.752Z,0
2018-12-30T02:13:46.225Z,0
2018-12-30T02:14:47.592Z,0
2018-12-30T02:15:48.994Z,0
2018-12-30T02:16:50.422Z,0
2018-12-30T02:17:51.815Z,0
2018-12-30T02:18:53.181Z,0
2018-12-30T02:19:54.515Z,0
2018-12-30T02:20:55.896Z,0
2018-12-30T02:21:57.257Z,0
2018-12-30T02:22:58.631Z,0
2018-12-30T02:24:00.042Z,0
2018-12-30T02:25:01.447Z,0
2018-12-30T02:26:02.820Z,0
2018-12-30T02:27:04.188Z,0
2018-12-30T02:28:05.557Z,0
2018-12-30T02:29:06.961Z,0
2018-12-30T02:30:08.307Z,0
2018-12-30T02:31:09.680Z,0
2018-12-30T02:32:11.053Z,0
2018-12-30T02:33:12.448Z,0
2018-12-30T02:34:13.847Z,0
2018-12-30T02:35:15.228Z,0
2018-12-30T02:36:16.607Z,0
2018-12-30T02:37:17.976Z,0
2018-12-30T02:38:19.502Z,0
2018-12-30T02:39:21.294Z,0
2018-12-30T02:40:22.669Z,0
2018-12-30T02:41:23.991Z,0
2018-12-30T02:42:25.356Z,0
2018-12-30T02:43:26.759Z,0
2018-12-30T02:44:28.133Z,0
2018-12-30T02:45:29.502Z,0
2018-12-30T02:46:30.875Z,0
2018-12-30T02:47:32.245Z,0
2018-12-30T02:48:33.608Z,0
2018-12-30T02:49:34.981Z,0
2018-12-30T02:50:37.298Z,0
2018-12-30T02:51:38.663Z,0
2018-12-30T02:52:40.001Z,0
2018-12-30T02:53:41.368Z,0
2018-12-30T02:54:42.735Z,0
2018-12-30T02:55:44.106Z,0
2018-12-30T02:56:45.477Z,0
2018-12-30T02:57:46.851Z,0
2018-12-30T02:58:48.227Z,0
2018-12-30T02:59:49.594Z,0
2018-12-30T03:00:50.966Z,0
2018-12-30T03:01:52.351Z,0
2018-12-30T03:02:53.734Z,0
2018-12-30T03:03:55.064Z,0
2018-12-30T03:04:56.461Z,0
2018-12-30T03:05:57.899Z,0
2018-12-30T03:06:59.272Z,0
2018-12-30T03:08:00.644Z,0
2018-12-30T03:09:02.012Z,0
2018-12-30T03:10:03.423Z,0
2018-12-30T03:11:04.794Z,0
2018-12-30T03:12:06.150Z,0
2018-12-30T03:13:07.527Z,0
2018-12-30T03:14:08.888Z,0
2018-12-30T03:15:10.275Z,0
2018-12-30T03:16:11.616Z,0
2018-12-30T03:17:12.987Z,0
2018-12-30T03:18:14.346Z,0
2018-12-30T03:19:15.722Z,0
2018-12-30T03:20:17.086Z,0
2018-12-30T03:21:18.461Z,0
2018-12-30T03:22:19.814Z,0
2018-12-30T03:23:21.166Z,0
2018-12-30T03:24:22.590Z,0
2018-12-30T03:25:23.958Z,0
2018-12-30T03:26:25.326Z,0
2018-12-30T03:27:26.689Z,0
2018-12-30T03:28:28.059Z,0
2018-12-30T03:29:29.466Z,0
2018-12-30T03:30:30.833Z,0
2018-12-30T03:31:32.199Z,0
2018-12-30T03:32:33.564Z,0
2018-12-30T03:33:34.945Z,0
2018-12-30T03:34:36.325Z,0
2018-12-30T03:35:37.695Z,0
2018-12-30T03:36:39.082Z,0
2018-12-30T03:37:40.451Z,0
2018-12-30T03:38:41.823Z,0
2018-12-30T03:39:43.209Z,0
2018-12-30T03:40:44.585Z,0
2018-12-30T03:41:45.966Z,0
2018-12-30T03:42:47.321Z,0
2018-12-30T03:43:48.694Z,0
2018-12-30T03:44:50.068Z,0
2018-12-30T03:45:51.445Z,0
2018-12-30T03:46:52.882Z,0
2018-12-30T03:47:54.156Z,0
2018-12-30T03:48:55.553Z,0
2018-12-30T03:49:56.953Z,0
2018-12-30T03:50:58.320Z,0
2018-12-30T03:52:08.046Z,0
2018-12-30T03:53:01.091Z,0
2018-12-30T03:54:02.455Z,0
2018-12-30T03:55:03.829Z,0
2018-12-30T03:56:05.193Z,0
2018-12-30T03:57:06.569Z,0
2018-12-30T03:58:07.956Z,0
2018-12-30T03:59:09.398Z,0
2018-12-30T04:00:10.778Z,0
2018-12-30T04:01:12.143Z,0
2018-12-30T04:02:13.523Z,0
2018-12-30T04:03:14.899Z,0
2018-12-30T04:04:16.266Z,0
2018-12-30T04:05:17.661Z,0
2018-12-30T04:06:19.023Z,0
2018-12-30T04:07:20.389Z,0
2018-12-30T04:08:21.755Z,0
2018-12-30T04:09:23.133Z,0
2018-12-30T04:10:24.502Z,0
2018-12-30T04:11:25.873Z,0
2018-12-30T04:12:27.236Z,0
2018-12-30T04:13:28.603Z,0
2018-12-30T04:14:29.969Z,0
2018-12-30T04:15:31.331Z,0
2018-12-30T04:16:32.707Z,0
2018-12-30T04:17:34.075Z,0
2018-12-30T04:18:35.444Z,0
2018-12-30T04:19:36.815Z,0
2018-12-30T04:20:38.178Z,0
2018-12-30T04:21:39.545Z,0
2018-12-30T04:22:40.927Z,0
2018-12-30T04:23:42.291Z,0
2018-12-30T04:24:43.659Z,0
2018-12-30T04:25:45.031Z,0
2018-12-30T04:26:46.402Z,0
2018-12-30T04:27:47.768Z,0
2018-12-30T04:28:49.136Z,0
2018-12-30T04:29:50.511Z,0
2018-12-30T04:30:51.875Z,0
2018-12-30T04:31:53.239Z,0
2018-12-30T04:32:54.608Z,0
2018-12-30T04:33:55.992Z,0
2018-12-30T04:34:57.362Z,0
2018-12-30T04:35:59.590Z,0
2018-12-30T04:37:00.957Z,0
2018-12-30T04:38:02.328Z,0
2018-12-30T04:39:03.698Z,0
2018-12-30T04:40:05.075Z,0
2018-12-30T04:41:06.432Z,0
2018-12-30T04:42:07.796Z,0
2018-12-30T04:43:09.174Z,0
2018-12-30T04:44:10.530Z,0
2018-12-30T04:45:11.898Z,0
2018-12-30T04:46:13.263Z,0
2018-12-30T04:47:14.638Z,0
2018-12-30T04:48:16.004Z,0
2018-12-30T04:49:17.377Z,0
2018-12-30T04:50:18.740Z,0
2018-12-30T04:51:20.117Z,0
2018-12-30T04:52:25.573Z,0
2018-12-30T04:53:22.819Z,0
2018-12-30T04:54:24.180Z,0
2018-12-30T04:55:25.555Z,0
2018-12-30T04:56:26.959Z,0
2018-12-30T04:57:28.347Z,0
2018-12-30T04:58:29.705Z,0
2018-12-30T04:59:31.075Z,0
2018-12-30T05:00:32.458Z,0
2018-12-30T05:01:33.830Z,0
2018-12-30T05:02:35.201Z,0
2018-12-30T05:03:36.562Z,0
2018-12-30T05:04:37.927Z,0
2018-12-30T05:05:39.295Z,0
2018-12-30T05:06:40.660Z,0
2018-12-30T05:07:42.031Z,0
2018-12-30T05:08:43.400Z,0
2018-12-30T05:09:44.769Z,0
2018-12-30T05:10:46.138Z,0
2018-12-30T05:11:47.503Z,0
2018-12-30T05:12:48.868Z,0
2018-12-30T05:13:50.265Z,0
2018-12-30T05:14:51.619Z,0
2018-12-30T05:15:52.992Z,0
2018-12-30T05:16:54.382Z,0
2018-12-30T05:17:55.736Z,0
2018-12-30T05:18:57.104Z,0
2018-12-30T05:19:58.480Z,0
2018-12-30T05:20:59.865Z,0
2018-12-30T05:22:01.236Z,0
2018-12-30T05:23:02.605Z,0
2018-12-30T05:24:03.974Z,0
2018-12-30T05:25:05.354Z,0
2018-12-30T05:26:06.704Z,0
2018-12-30T05:27:08.078Z,0
2018-12-30T05:28:09.449Z,0
2018-12-30T05:29:10.814Z,0
2018-12-30T05:30:12.176Z,0
2018-12-30T05:31:13.548Z,0
2018-12-30T05:32:14.918Z,0
2018-12-30T05:33:16.284Z,0
2018-12-30T05:34:17.653Z,0
2018-12-30T05:35:19.019Z,0
2018-12-30T05:36:20.387Z,0
2018-12-30T05:37:21.754Z,0
2018-12-30T05:38:23.129Z,0
2018-12-30T05:39:24.492Z,0
2018-12-30T05:40:25.852Z,0
2018-12-30T05:41:27.225Z,0
2018-12-30T05:42:28.594Z,0
2018-12-30T05:43:29.964Z,0
2018-12-30T05:44:31.336Z,0
2018-12-30T05:45:32.712Z,0
2018-12-30T05:46:34.987Z,0
2018-12-30T05:47:36.355Z,0
2018-12-30T05:48:38.370Z,0
2018-12-30T05:49:39.724Z,0
2018-12-30T05:50:41.089Z,0
2018-12-30T05:51:42.472Z,0
2018-12-30T05:52:43.855Z,0
2018-12-30T05:53:45.191Z,0
2018-12-30T05:54:46.565Z,0
2018-12-30T05:55:47.940Z,0
2018-12-30T05:56:49.309Z,0
2018-12-30T05:57:50.674Z,0
2018-12-30T05:58:52.041Z,0
2018-12-30T05:59:53.410Z,0
2018-12-30T06:00:54.777Z,0
2018-12-30T06:01:56.139Z,0
2018-12-30T06:02:57.508Z,0
2018-12-30T06:03:58.910Z,0
2018-12-30T06:05:00.274Z,0
2018-12-30T06:06:01.664Z,0
2018-12-30T06:07:03.822Z,0
2018-12-30T06:08:05.190Z,0
2018-12-30T06:09:06.553Z,0
2018-12-30T06:10:07.923Z,0
2018-12-30T06:11:09.291Z,0
2018-12-30T06:12:10.661Z,0
2018-12-30T06:13:12.042Z,0
2018-12-30T06:14:13.410Z,0
2018-12-30T06:15:14.783Z,0
2018-12-30T06:16:16.178Z,0
2018-12-30T06:17:17.541Z,0
2018-12-30T06:18:18.914Z,0
2018-12-30T06:19:20.277Z,0
2018-12-30T06:20:21.642Z,0
2018-12-30T06:21:23.014Z,0
2018-12-30T06:22:24.371Z,0
2018-12-30T06:23:25.743Z,0
2018-12-30T06:24:27.114Z,0
2018-12-30T06:25:28.480Z,0
2018-12-30T06:26:29.842Z,0
2018-12-30T06:27:31.210Z,0
2018-12-30T06:28:32.584Z,0
2018-12-30T06:29:33.962Z,0
2018-12-30T06:30:35.318Z,0
2018-12-30T06:31:37.323Z,0
2018-12-30T06:32:38.691Z,0
2018-12-30T06:33:40.063Z,0
2018-12-30T06:34:41.428Z,0
2018-12-30T06:35:42.790Z,0
2018-12-30T06:36:44.163Z,0
2018-12-30T06:37:45.526Z,0
2018-12-30T06:38:46.901Z,0
2018-12-30T06:39:48.264Z,0
2018-12-30T06:40:49.633Z,0
2018-12-30T06:41:50.996Z,0
2018-12-30T06:42:52.399Z,0
2018-12-30T06:43:53.748Z,0
2018-12-30T06:44:55.141Z,0
2018-12-30T06:45:56.531Z,0
2018-12-30T06:46:57.866Z,0
2018-12-30T06:47:59.232Z,0
2018-12-30T06:49:00.620Z,0
2018-12-30T06:50:01.974Z,0
2018-12-30T06:51:03.352Z,0
2018-12-30T06:52:04.730Z,0
2018-12-30T06:53:06.103Z,0
2018-12-30T06:54:07.475Z,0
2018-12-30T06:55:08.845Z,0
2018-12-30T06:56:10.216Z,0
2018-12-30T06:57:11.583Z,0
2018-12-30T06:58:12.949Z,0
2018-12-30T06:59:14.312Z,0
2018-12-30T07:00:15.675Z,0
2018-12-30T07:01:17.075Z,0
2018-12-30T07:02:18.435Z,0
2018-12-30T07:03:19.809Z,0
2018-12-30T07:04:21.172Z,0
2018-12-30T07:05:22.538Z,0
2018-12-30T07:06:23.903Z,0
2018-12-30T07:07:25.273Z,0
2018-12-30T07:08:26.647Z,0
2018-12-30T07:09:28.005Z,0
2018-12-30T07:10:29.379Z,0
2018-12-30T07:11:30.746Z,0
2018-12-30T07:12:32.857Z,0
2018-12-30T07:13:34.225Z,0
2018-12-30T07:14:35.590Z,0
2018-12-30T07:15:36.959Z,0
2018-12-30T07:16:38.324Z,0
2018-12-30T07:17:39.723Z,0
2018-12-30T07:18:41.056Z,0
2018-12-30T07:19:42.424Z,0
2018-12-30T07:20:43.789Z,0
2018-12-30T07:21:45.165Z,0
2018-12-30T07:22:46.530Z,0
2018-12-30T07:23:47.918Z,0
2018-12-30T07:24:49.304Z,0
2018-12-30T07:25:50.667Z,0
2018-12-30T07:26:52.027Z,0
2018-12-30T07:27:53.393Z,0
2018-12-30T07:28:54.807Z,0
2018-12-30T07:29:56.155Z,0
2018-12-30T07:30:57.523Z,4
2018-12-30T07:31:59.838Z,4
2018-12-30T07:33:01.212Z,4
2018-12-30T07:34:02.583Z,4
2018-12-30T07:35:03.944Z,4
2018-12-30T07:36:05.314Z,0
2018-12-30T07:37:06.683Z,0
2018-12-30T07:38:08.053Z,0
2018-12-30T07:39:09.423Z,4
2018-12-30T07:40:10.789Z,4
2018-12-30T07:41:12.161Z,4
2018-12-30T07:42:13.527Z,4
2018-12-30T07:43:14.909Z,4
2018-12-30T07:44:16.269Z,4
2018-12-30T07:45:17.637Z,4
2018-12-30T07:46:19.515Z,4
2018-12-30T07:47:20.885Z,4
2018-12-30T07:48:22.243Z,4
2018-12-30T07:49:23.610Z,4
2018-12-30T07:50:24.973Z,4
2018-12-30T07:51:26.345Z,4
2018-12-30T07:52:27.798Z,4
2018-12-30T07:53:29.048Z,4
2018-12-30T07:54:30.413Z,4
2018-12-30T07:55:31.777Z,4
2018-12-30T07:56:33.149Z,4
2018-12-30T07:57:34.515Z,4
2018-12-30T07:58:35.903Z,4
2018-12-30T07:59:37.273Z,4
2018-12-30T08:00:38.635Z,8
2018-12-30T08:01:40.024Z,8
2018-12-30T08:02:41.396Z,4
2018-12-30T08:03:42.757Z,8
2018-12-30T08:04:44.129Z,8
2018-12-30T08:05:45.506Z,8
2018-12-30T08:06:46.870Z,8
2018-12-30T08:07:48.239Z,8
2018-12-30T08:08:49.605Z,12
2018-12-30T08:09:50.969Z,8
2018-12-30T08:10:52.339Z,8
2018-12-30T08:11:53.703Z,8
2018-12-30T08:12:55.066Z,8
2018-12-30T08:13:56.437Z,12
2018-12-30T08:14:57.815Z,12
2018-12-30T08:15:59.174Z,16
2018-12-30T08:17:01.480Z,12
2018-12-30T08:18:01.868Z,12
2018-12-30T08:19:03.243Z,16
2018-12-30T08:20:04.619Z,16
2018-12-30T08:21:06.016Z,16
2018-12-30T08:22:07.380Z,16
2018-12-30T08:23:08.747Z,16
2018-12-30T08:24:10.115Z,20
2018-12-30T08:25:11.487Z,24
2018-12-30T08:26:12.850Z,24
2018-12-30T08:27:14.221Z,24
2018-12-30T08:28:15.594Z,24
2018-12-30T08:29:16.977Z,24
2018-12-30T08:30:18.358Z,24
2018-12-30T08:31:19.725Z,28
2018-12-30T08:32:21.097Z,28
2018-12-30T08:33:22.476Z,28
2018-12-30T08:34:23.853Z,28
2018-12-30T08:35:25.218Z,28
2018-12-30T08:36:26.592Z,28
2018-12-30T08:37:27.970Z,32
2018-12-30T08:38:29.338Z,32
2018-12-30T08:39:30.706Z,36
2018-12-30T08:40:32.081Z,36
2018-12-30T08:41:33.448Z,36
2018-12-30T08:42:34.829Z,40
2018-12-30T08:43:36.200Z,40
2018-12-30T08:44:37.562Z,40
2018-12-30T08:45:38.930Z,44
2018-12-30T08:46:40.300Z,44
2018-12-30T08:47:41.666Z,44
2018-12-30T08:48:43.049Z,48
2018-12-30T08:49:44.435Z,56
2018-12-30T08:50:45.805Z,60
2018-12-30T08:51:47.180Z,64
2018-12-30T08:52:48.547Z,68
2018-12-30T08:53:49.909Z,68
2018-12-30T08:54:51.279Z,60
2018-12-30T08:55:52.648Z,52
2018-12-30T08:56:54.020Z,44
2018-12-30T08:57:55.381Z,40
2018-12-30T08:58:56.763Z,48
2018-12-30T08:59:58.124Z,32
2018-12-30T09:00:59.493Z,32
2018-12-30T09:02:00.859Z,24
2018-12-30T09:03:02.233Z,24
2018-12-30T09:04:03.594Z,24
2018-12-30T09:05:04.967Z,20
2018-12-30T09:06:06.352Z,20
2018-12-30T09:07:07.709Z,20
2018-12-30T09:08:09.041Z,20
2018-12-30T09:09:10.404Z,16
2018-12-30T09:10:11.775Z,16
2018-12-30T09:11:13.139Z,20
2018-12-30T09:12:14.507Z,16
2018-12-30T09:13:15.875Z,20
2018-12-30T09:14:17.239Z,20
2018-12-30T09:15:18.622Z,16
2018-12-30T09:16:19.981Z,16
2018-12-30T09:17:21.363Z,16
2018-12-30T09:18:22.719Z,20
2018-12-30T09:19:24.094Z,20
2018-12-30T09:20:25.455Z,20
2018-12-30T09:21:26.839Z,16
2018-12-30T09:22:28.201Z,16
2018-12-30T09:23:36.944Z,16
2018-12-30T09:24:30.893Z,20
2018-12-30T09:25:32.268Z,20
2018-12-30T09:26:33.634Z,24
2018-12-30T09:27:34.998Z,24
2018-12-30T09:28:36.369Z,28
2018-12-30T09:29:37.789Z,28
2018-12-30T09:30:39.168Z,28
2018-12-30T09:31:40.539Z,32
2018-12-30T09:32:41.908Z,28
2018-12-30T09:33:43.279Z,28
2018-12-30T09:34:44.657Z,32
2018-12-30T09:35:46.035Z,36
2018-12-30T09:36:47.398Z,36
2018-12-30T09:37:48.783Z,40
2018-12-30T09:38:50.151Z,48
2018-12-30T09:39:51.531Z,48
2018-12-30T09:40:52.895Z,52
2018-12-30T09:41:54.264Z,56
2018-12-30T09:42:55.623Z,60
2018-12-30T09:43:56.997Z,60
2018-12-30T09:44:58.368Z,64
2018-12-30T09:45:59.742Z,80
2018-12-30T09:47:01.110Z,76
2018-12-30T09:48:02.554Z,64
2018-12-30T09:49:03.860Z,60
2018-12-30T09:50:05.229Z,56
2018-12-30T09:51:06.612Z,44
2018-12-30T09:52:07.968Z,36
2018-12-30T09:53:09.347Z,36
2018-12-30T09:54:10.709Z,36
2018-12-30T09:55:12.076Z,36
2018-12-30T09:56:13.451Z,40
2018-12-30T09:57:14.824Z,40
2018-12-30T09:58:16.194Z,36
2018-12-30T09:59:17.551Z,36
2018-12-30T10:00:18.933Z,32
2018-12-30T10:01:20.299Z,36
2018-12-30T10:02:21.666Z,32
2018-12-30T10:03:23.059Z,36
2018-12-30T10:04:24.421Z,32
2018-12-30T10:05:25.785Z,32
2018-12-30T10:06:27.151Z,28
2018-12-30T10:07:28.517Z,32
2018-12-30T10:08:30.427Z,32
2018-12-30T10:09:31.791Z,32
2018-12-30T10:10:33.168Z,32
2018-12-30T10:11:34.534Z,36
2018-12-30T10:12:35.898Z,32
2018-12-30T10:13:37.275Z,32
2018-12-30T10:14:38.639Z,32
2018-12-30T10:15:40.024Z,32
2018-12-30T10:16:41.388Z,32
2018-12-30T10:17:42.745Z,32
2018-12-30T10:18:44.123Z,36
2018-12-30T10:19:45.498Z,40
2018-12-30T10:20:46.864Z,36
2018-12-30T10:21:48.236Z,36
2018-12-30T10:22:49.618Z,36
2018-12-30T10:23:53.041Z,36
2018-12-30T10:24:52.316Z,36
2018-12-30T10:25:53.696Z,36
2018-12-30T10:26:55.064Z,40
2018-12-30T10:27:56.429Z,44
2018-12-30T10:28:57.793Z,44
2018-12-30T10:29:59.175Z,48
2018-12-30T10:31:00.556Z,48
2018-12-30T10:32:01.923Z,48
2018-12-30T10:33:03.306Z,48
2018-12-30T10:34:04.679Z,48
2018-12-30T10:35:06.041Z,52
2018-12-30T10:36:07.414Z,52
2018-12-30T10:37:08.783Z,52
2018-12-30T10:38:10.154Z,48
2018-12-30T10:39:11.531Z,48
2018-12-30T10:40:12.898Z,48
2018-12-30T10:41:14.266Z,48
2018-12-30T10:42:15.635Z,52
2018-12-30T10:43:17.008Z,52
2018-12-30T10:44:18.390Z,52
2018-12-30T10:45:19.769Z,48
2018-12-30T10:46:21.132Z,52
2018-12-30T10:47:22.509Z,56
2018-12-30T10:48:23.879Z,56
2018-12-30T10:49:25.264Z,56
2018-12-30T10:50:26.634Z,56
2018-12-30T10:51:28.007Z,56
2018-12-30T10:52:29.373Z,52
2018-12-30T10:53:30.774Z,52
2018-12-30T10:54:32.135Z,52
2018-12-30T10:55:33.520Z,48
2018-12-30T10:56:34.869Z,48
2018-12-30T10:57:36.248Z,44
2018-12-30T10:58:37.605Z,44
2018-12-30T10:59:38.989Z,44
2018-12-30T11:00:40.347Z,48
2018-12-30T11:01:41.709Z,48
2018-12-30T11:02:43.094Z,52
2018-12-30T11:03:45.353Z,52
2018-12-30T11:04:46.742Z,52
2018-12-30T11:05:48.127Z,52
2018-12-30T11:06:49.494Z,56
2018-12-30T11:07:50.864Z,52
2018-12-30T11:08:52.224Z,48
2018-12-30T11:09:53.591Z,48
2018-12-30T11:10:54.963Z,48
2018-12-30T11:11:56.328Z,48
2018-12-30T11:12:57.691Z,48
2018-12-30T11:13:59.066Z,48
2018-12-30T11:15:00.430Z,48
2018-12-30T11:16:01.802Z,48
2018-12-30T11:17:03.174Z,48
2018-12-30T11:18:04.539Z,48
2018-12-30T11:19:05.907Z,44
2018-12-30T11:20:07.300Z,44
2018-12-30T11:21:08.668Z,44
2018-12-30T11:22:10.035Z,40
2018-12-30T11:23:12.232Z,40
2018-12-30T11:24:13.620Z,40
2018-12-30T11:25:14.973Z,40
2018-12-30T11:26:16.340Z,40
2018-12-30T11:27:17.715Z,36
2018-12-30T11:28:20.048Z,36
2018-12-30T11:29:20.425Z,36
2018-12-30T11:30:21.792Z,36
2018-12-30T11:31:23.162Z,36
2018-12-30T11:32:24.544Z,36
2018-12-30T11:33:25.926Z,36
2018-12-30T11:34:27.307Z,36
2018-12-30T11:35:28.679Z,36
2018-12-30T11:36:30.041Z,36
2018-12-30T11:37:31.410Z,32
2018-12-30T11:38:33.556Z,32
2018-12-30T11:39:34.113Z,32
2018-12-30T11:40:35.484Z,28
2018-12-30T11:41:36.863Z,32
2018-12-30T11:42:38.228Z,32
2018-12-30T11:43:39.602Z,32
2018-12-30T11:44:40.969Z,32
2018-12-30T11:45:42.349Z,32
2018-12-30T11:46:43.748Z,32
2018-12-30T11:47:45.111Z,32
2018-12-30T11:48:46.473Z,32
2018-12-30T11:49:47.833Z,32
2018-12-30T11:50:49.218Z,36
2018-12-30T11:51:50.597Z,36
2018-12-30T11:52:51.959Z,36
2018-12-30T11:53:53.345Z,36
2018-12-30T11:54:54.707Z,36
2018-12-30T11:55:56.685Z,32
2018-12-30T11:56:58.052Z,36
2018-12-30T11:57:59.420Z,36
2018-12-30T11:59:00.800Z,36
2018-12-30T12:00:02.177Z,32
2018-12-30T12:01:03.544Z,32
2018-12-30T12:02:04.925Z,32
2018-12-30T12:03:06.299Z,28
2018-12-30T12:04:07.660Z,28
2018-12-30T12:05:09.032Z,28
2018-12-30T12:06:10.395Z,24
2018-12-30T12:07:11.763Z,24
2018-12-30T12:08:13.124Z,28
2018-12-30T12:09:14.501Z,24
2018-12-30T12:10:15.875Z,24
2018-12-30T12:11:18.174Z,24
2018-12-30T12:12:19.543Z,20
2018-12-30T12:13:20.933Z,24
2018-12-30T12:14:22.303Z,24
2018-12-30T12:15:23.676Z,24
2018-12-30T12:16:25.031Z,24
2018-12-30T12:17:26.401Z,24
2018-12-30T12:18:27.769Z,24
2018-12-30T12:19:29.137Z,24
2018-12-30T12:20:30.524Z,28
2018-12-30T12:21:31.890Z,28
2018-12-30T12:22:33.261Z,28
2018-12-30T12:23:34.626Z,28
2018-12-30T12:24:35.993Z,28
2018-12-30T12:25:37.367Z,24
2018-12-30T12:26:39.238Z,28
2018-12-30T12:27:40.605Z,24
2018-12-30T12:28:41.969Z,24
2018-12-30T12:29:43.352Z,24
2018-12-30T12:30:44.872Z,24
2018-12-30T12:31:46.251Z,24
2018-12-30T12:32:47.623Z,24
2018-12-30T12:33:48.994Z,24
2018-12-30T12:34:50.368Z,20
2018-12-30T12:35:51.752Z,24
2018-12-30T12:36:53.119Z,24
2018-12-30T12:37:54.487Z,20
2018-12-30T12:38:55.856Z,24
2018-12-30T12:39:57.231Z,20
2018-12-30T12:40:58.595Z,20
2018-12-30T12:41:59.964Z,20
2018-12-30T12:43:01.335Z,20
2018-12-30T12:44:02.716Z,20
2018-12-30T12:45:04.084Z,20
2018-12-30T12:46:06.217Z,16
2018-12-30T12:47:06.778Z,20
2018-12-30T12:48:08.156Z,20
2018-12-30T12:49:09.529Z,16
2018-12-30T12:50:10.913Z,16
2018-12-30T12:51:12.279Z,16
2018-12-30T12:52:13.655Z,16
2018-12-30T12:53:15.069Z,16
2018-12-30T12:54:16.437Z,16
2018-12-30T12:55:17.999Z,20
2018-12-30T12:56:19.337Z,16
2018-12-30T12:57:20.699Z,16
2018-12-30T12:58:22.071Z,16
2018-12-30T12:59:23.434Z,16
2018-12-30T13:00:24.807Z,16
2018-12-30T13:01:26.181Z,12
2018-12-30T13:02:27.544Z,16
2018-12-30T13:03:28.915Z,12
2018-12-30T13:04:30.284Z,12
2018-12-30T13:05:31.654Z,12
2018-12-30T13:06:33.654Z,12
2018-12-30T13:07:35.019Z,12
2018-12-30T13:08:36.389Z,12
2018-12-30T13:09:37.794Z,12
2018-12-30T13:10:39.144Z,12
2018-12-30T13:11:40.505Z,12
2018-12-30T13:12:41.893Z,16
2018-12-30T13:13:43.266Z,16
2018-12-30T13:14:44.630Z,12
2018-12-30T13:15:46.061Z,16
2018-12-30T13:16:47.384Z,12
2018-12-30T13:17:48.748Z,16
2018-12-30T13:18:50.132Z,16
2018-12-30T13:19:51.487Z,20
2018-12-30T13:20:52.848Z,20
2018-12-30T13:21:54.222Z,20
2018-12-30T13:22:55.599Z,20
2018-12-30T13:23:56.966Z,20
2018-12-30T13:24:58.339Z,24
2018-12-30T13:25:59.742Z,24
2018-12-30T13:27:01.071Z,24
2018-12-30T13:28:02.443Z,20
2018-12-30T13:29:03.817Z,24
2018-12-30T13:30:05.190Z,24
2018-12-30T13:31:06.562Z,20
2018-12-30T13:32:07.933Z,28
2018-12-30T13:33:09.319Z,24
2018-12-30T13:34:10.700Z,28
2018-12-30T13:35:12.076Z,24
2018-12-30T13:36:13.452Z,20
2018-12-30T13:37:14.823Z,24
2018-12-30T13:38:16.195Z,20
2018-12-30T13:39:17.567Z,20
2018-12-30T13:40:20.214Z,16
2018-12-30T13:41:20.265Z,16
2018-12-30T13:42:21.764Z,20
2018-12-30T13:43:23.142Z,20
2018-12-30T13:44:24.524Z,20
2018-12-30T13:45:25.885Z,20
2018-12-30T13:46:27.249Z,20
2018-12-30T13:47:28.616Z,24
2018-12-30T13:48:29.984Z,24
2018-12-30T13:49:31.365Z,24
2018-12-30T13:50:32.738Z,24
2018-12-30T13:51:34.167Z,24
2018-12-30T13:52:35.529Z,24
2018-12-30T13:53:36.897Z,24
2018-12-30T13:54:38.279Z,24
2018-12-30T13:55:39.859Z,24
2018-12-30T13:56:41.274Z,24
2018-12-30T13:57:42.620Z,24
2018-12-30T13:58:43.992Z,24
2018-12-30T13:59:46.288Z,24
2018-12-30T14:00:47.673Z,20
2018-12-30T14:01:49.025Z,24
2018-12-30T14:02:50.402Z,24
2018-12-30T14:03:51.769Z,20
2018-12-30T14:04:53.263Z,20
2018-12-30T14:05:54.644Z,24
2018-12-30T14:06:56.022Z,24
2018-12-30T14:07:57.499Z,20
2018-12-30T14:08:58.875Z,20
2018-12-30T14:10:00.248Z,20
2018-12-30T14:11:01.616Z,20
2018-12-30T14:12:02.983Z,20
2018-12-30T14:13:04.928Z,12
2018-12-30T14:14:06.294Z,16
2018-12-30T14:15:07.675Z,12
2018-12-30T14:16:09.041Z,12
2018-12-30T14:17:10.410Z,12
2018-12-30T14:18:11.781Z,16
2018-12-30T14:19:13.146Z,16
2018-12-30T14:20:14.511Z,16
2018-12-30T14:21:15.880Z,12
2018-12-30T14:22:17.255Z,12
2018-12-30T14:23:18.677Z,8
2018-12-30T14:24:20.045Z,12
2018-12-30T14:25:21.403Z,8
2018-12-30T14:26:22.770Z,12
2018-12-30T14:27:24.141Z,8
2018-12-30T14:28:25.516Z,8
2018-12-30T14:29:26.894Z,8
2018-12-30T14:30:28.256Z,4
2018-12-30T14:31:29.624Z,8
2018-12-30T14:32:31.438Z,8
2018-12-30T14:33:32.826Z,8
2018-12-30T14:34:34.210Z,8
2018-12-30T14:35:35.575Z,8
2018-12-30T14:36:36.965Z,4
2018-12-30T14:37:38.338Z,4
2018-12-30T14:38:39.704Z,4
2018-12-30T14:39:41.070Z,8
2018-12-30T14:40:42.522Z,4
2018-12-30T14:41:43.903Z,4
2018-12-30T14:42:45.262Z,4
2018-12-30T14:43:46.670Z,4
2018-12-30T14:44:48.024Z,4
2018-12-30T14:45:49.399Z,4
2018-12-30T14:46:50.821Z,4
2018-12-30T14:47:52.235Z,4
2018-12-30T14:48:53.608Z,4
2018-12-30T14:49:54.978Z,4
2018-12-30T14:50:56.358Z,4
2018-12-30T14:51:57.727Z,4
2018-12-30T14:52:59.088Z,4
2018-12-30T14:54:00.457Z,4